KSNS/SNS METAR and TAF weather

Enter ICAO airport designator
Station Type Date Time Source
KSNS METAR 2019/04/25 17:53 UTC NOAA

KSNS 251753Z 29003KT 7SM CLR 18/12 A2998 RMK AO2 SLP161 T01780117 10183 20122 58001


Station Type Date Time Source
KSNS Decoded METAR 2019/04/25 17:53 UTC NOAA

SALINAS MUNICIPAL AIRPORT, CA, United States (KSNS) 36-40N 121-36W 30M
Apr 25, 2019 - 01:53 PM EDT / 2019.04.25 1753 UTC
Wind: from the WNW (290 degrees) at 3 MPH (3 KT):0
Visibility: 7 mile(s):0
Sky conditions: clear
Temperature: 64.0 F (17.8 C)
Dew Point: 53.1 F (11.7 C)
Relative Humidity: 67%
Pressure (altimeter): 29.98 in. Hg (1015 hPa)
Pressure tendency: 0.00 inches (0.1 hPa) lower than three hours ago
ob: KSNS 251753Z 29003KT 7SM CLR 18/12 A2998 RMK AO2 SLP161 T01780117 10183 20122 58001
cycle: 18

Station Type Date Time Source
KSNS TAF 2019/04/25 18:24 UTC NOAA

TAF KSNS 251721Z 2518/2618 31006KT P6SM FEW010
FM252000 30012KT P6SM FEW250
FM260300 30006KT P6SM BKN010
FM260600 VRB04KT P6SM OVC007
FM261700 VRB04KT P6SM SCT007

Example: see airport list